Time;durP1;ratioP1;P1;durP2;ratioP2;P2;SDS_P1;SDS_P2;PMS_P1;PMS_P2;Temp;Humidity;BMP_temperature;BMP_pressure;BME280_temperature;BME280_humidity;BME280_pressure;Samples;Min_cycle;Max_cycle;Signal;HPM_P1;HPM_P2
2021/10/22 00:02:21;;;;;;;4.97;2.17;;;;;;;5.72;86.84;100105.19;5016868;28;20697;-84
2021/10/22 00:04:47;;;;;;;7.70;2.20;;;;;;;5.78;86.38;100112.94;5017461;28;20226;-84
2021/10/22 00:07:14;;;;;;;12.33;3.50;;;;;;;5.85;86.85;100113.78;5016714;28;20691;-83
2021/10/22 00:09:40;;;;;;;11.30;2.77;;;;;;;5.81;85.78;100145.75;5017349;28;20230;-83
2021/10/22 00:12:07;;;;;;;5.77;2.20;;;;;;;5.82;86.57;100138.84;5017352;28;20459;-83
2021/10/22 00:14:35;;;;;;;4.10;1.70;;;;;;;5.76;86.37;100132.81;5018008;28;20207;-84
2021/10/22 00:17:01;;;;;;;6.30;1.93;;;;;;;5.86;87.06;100140.53;5017753;28;20206;-82
2021/10/22 00:19:28;;;;;;;11.20;2.33;;;;;;;5.85;85.80;100150.06;5017330;28;20226;-83
2021/10/22 00:21:54;;;;;;;8.57;1.83;;;;;;;5.78;86.87;100140.56;5018186;28;20202;-84
2021/10/22 00:24:21;;;;;;;6.80;3.07;;;;;;;5.71;86.79;100137.16;5018196;28;20213;-84
2021/10/22 00:26:47;;;;;;;10.73;2.47;;;;;;;5.76;86.85;100142.31;5018663;28;20213;-83
2021/10/22 00:29:14;;;;;;;8.10;2.33;;;;;;;5.77;86.57;100137.13;5009769;28;20782;-82
2021/10/22 00:31:42;;;;;;;8.63;2.40;;;;;;;5.75;87.55;100135.44;4998630;28;20216;-84
2021/10/22 00:34:08;;;;;;;9.03;1.80;;;;;;;5.69;87.17;100133.72;5014466;28;20203;-83
2021/10/22 00:36:36;;;;;;;5.87;1.93;;;;;;;5.74;87.48;100118.16;5019130;28;20199;-85
2021/10/22 00:39:04;;;;;;;7.03;2.07;;;;;;;5.81;87.50;100129.34;5018526;28;20222;-83
2021/10/22 00:41:32;;;;;;;5.23;1.63;;;;;;;5.68;87.64;100128.53;5018746;28;20264;-83
2021/10/22 00:43:58;;;;;;;7.07;2.50;;;;;;;5.65;88.05;100108.72;5018127;28;20264;-83
2021/10/22 00:46:29;;;;;;;7.33;2.00;;;;;;;5.70;87.84;100103.50;5019392;28;20246;-83
2021/10/22 00:48:58;;;;;;;5.43;1.93;;;;;;;5.70;87.20;100121.63;5019039;28;20842;-83
2021/10/22 00:51:27;;;;;;;6.47;1.87;;;;;;;5.72;87.44;100130.25;5018880;28;20233;-84
2021/10/22 00:53:54;;;;;;;6.00;3.10;;;;;;;5.73;86.95;100130.25;5020371;28;20497;-84
2021/10/22 00:56:20;;;;;;;7.37;3.00;;;;;;;5.69;87.59;100122.47;5023848;28;20628;-86
2021/10/22 00:58:47;;;;;;;6.43;2.40;;;;;;;5.79;87.92;100139.72;5023705;28;20229;-83
2021/10/22 01:01:14;;;;;;;5.33;2.33;;;;;;;5.82;86.89;100146.59;5025330;28;20218;-82
2021/10/22 01:03:40;;;;;;;8.43;2.60;;;;;;;5.79;87.42;100150.09;5024993;28;20207;-84
2021/10/22 01:06:09;;;;;;;4.13;2.13;;;;;;;5.76;87.33;100137.13;5027728;28;20592;-84
2021/10/22 01:08:36;;;;;;;4.50;1.70;;;;;;;5.77;87.54;100131.97;5042288;28;20281;-84
2021/10/22 01:11:03;;;;;;;6.53;2.63;;;;;;;5.82;87.11;100144.88;5039045;28;20255;-82
2021/10/22 01:13:31;;;;;;;6.60;2.17;;;;;;;5.81;87.09;100127.63;5037070;28;20213;-82
2021/10/22 01:15:58;;;;;;;5.40;1.97;;;;;;;5.68;87.64;100120.78;5037526;28;20255;-81
2021/10/22 01:18:26;;;;;;;8.60;3.93;;;;;;;5.71;88.28;100107.81;5036804;28;20203;-83
2021/10/22 01:20:58;;;;;;;5.73;1.83;;;;;;;5.69;88.23;100115.59;5027696;28;20261;-83
2021/10/22 01:23:24;;;;;;;6.77;2.27;;;;;;;5.74;87.59;100115.56;5017613;28;20687;-82
2021/10/22 01:25:51;;;;;;;6.03;1.80;;;;;;;5.78;87.57;100114.69;5016948;28;20254;-82
2021/10/22 01:28:19;;;;;;;5.63;1.80;;;;;;;5.84;86.88;100137.97;5016598;28;20202;-81
2021/10/22 01:30:46;;;;;;;4.57;1.50;;;;;;;5.88;86.51;100149.16;5017383;28;20238;-83
2021/10/22 01:33:17;;;;;;;5.63;1.93;;;;;;;5.85;87.05;100162.16;5016784;28;20202;-83
2021/10/22 01:35:43;;;;;;;6.60;1.40;;;;;;;5.78;86.62;100148.34;5016483;28;20202;-82
2021/10/22 01:38:12;;;;;;;7.23;1.90;;;;;;;5.70;87.54;100150.09;5016640;28;20209;-81
2021/10/22 01:40:38;;;;;;;5.57;1.37;;;;;;;5.72;87.24;100136.28;5016961;28;20227;-82
2021/10/22 01:43:05;;;;;;;5.87;1.53;;;;;;;5.75;87.03;100143.19;5016456;28;20699;-82
2021/10/22 01:45:31;;;;;;;5.17;1.97;;;;;;;5.73;87.29;100147.53;5016738;28;20279;-82
2021/10/22 01:47:59;;;;;;;7.37;2.00;;;;;;;5.76;87.16;100144.91;5016874;28;20688;-81
2021/10/22 01:50:25;;;;;;;10.37;2.73;;;;;;;5.70;87.12;100148.38;5016617;28;20230;-82
2021/10/22 01:52:52;;;;;;;5.73;1.87;;;;;;;5.70;86.75;100138.00;5016771;28;20265;-81
2021/10/22 01:55:19;;;;;;;7.70;2.20;;;;;;;5.76;86.87;100139.72;5016632;28;20203;-82
2021/10/22 01:57:46;;;;;;;6.63;1.93;;;;;;;5.76;87.34;100142.31;5016332;28;20614;-81
2021/10/22 02:00:12;;;;;;;5.30;1.83;;;;;;;5.80;86.70;100151.78;5015997;28;20712;-81
2021/10/22 02:02:39;;;;;;;6.43;2.50;;;;;;;5.82;86.80;100142.28;5016351;28;20214;-80
2021/10/22 02:05:06;;;;;;;7.53;2.97;;;;;;;5.85;86.41;100146.63;5015670;28;20415;-82
2021/10/22 02:07:32;;;;;;;7.47;2.63;;;;;;;5.76;86.97;100150.94;5015920;28;20703;-81
2021/10/22 02:09:59;;;;;;;4.37;2.60;;;;;;;5.72;87.07;100136.28;5015456;28;20773;-81
2021/10/22 02:12:27;;;;;;;10.37;2.77;;;;;;;5.70;87.42;100137.16;5015874;28;20211;-82
2021/10/22 02:14:54;;;;;;;7.93;3.20;;;;;;;5.72;87.43;100133.69;5016019;28;20210;-81
2021/10/22 02:17:20;;;;;;;8.57;2.63;;;;;;;5.76;86.88;100131.94;5015820;28;20211;-81
2021/10/22 02:19:47;;;;;;;4.23;2.40;;;;;;;5.72;87.09;100128.50;5015273;28;20347;-82
2021/10/22 02:22:13;;;;;;;7.30;1.90;;;;;;;5.66;87.20;100133.72;5015362;28;20612;-81
2021/10/22 02:24:40;;;;;;;7.90;2.30;;;;;;;5.73;87.22;100140.59;5015521;28;20606;-82
2021/10/22 02:27:06;;;;;;;5.43;3.83;;;;;;;5.67;87.16;100131.97;5014957;28;20245;-80
2021/10/22 02:29:35;;;;;;;5.83;3.80;;;;;;;5.72;87.50;100119.88;5014862;28;20238;-81
2021/10/22 02:32:01;;;;;;;6.73;3.23;;;;;;;5.66;87.20;100122.50;5016662;28;20234;-80
2021/10/22 02:34:27;;;;;;;12.37;4.20;;;;;;;5.68;86.88;100118.19;5016404;28;20211;-81
2021/10/22 02:36:54;;;;;;;6.53;4.03;;;;;;;5.70;87.42;100111.25;5016223;28;20738;-80
2021/10/22 02:39:21;;;;;;;12.07;3.60;;;;;;;5.72;87.01;100105.19;5016234;28;20233;-83
2021/10/22 02:41:47;;;;;;;7.27;4.10;;;;;;;5.74;86.73;100097.44;5015836;28;20214;-82
2021/10/22 02:44:14;;;;;;;9.80;4.93;;;;;;;5.66;87.46;100100.06;5016339;28;20210;-81
2021/10/22 02:46:42;;;;;;;10.43;4.03;;;;;;;5.74;87.20;100090.53;5016032;28;20231;-82
2021/10/22 02:49:09;;;;;;;10.03;4.00;;;;;;;5.78;87.22;100106.91;5015449;28;20733;-81
2021/10/22 02:51:35;;;;;;;9.60;5.47;;;;;;;5.82;87.07;100107.75;5015997;28;20260;-81
2021/10/22 02:54:02;;;;;;;9.43;4.57;;;;;;;5.64;87.19;100114.75;5015607;28;20290;-82
2021/10/22 02:56:28;;;;;;;9.77;5.33;;;;;;;5.69;86.88;100105.22;5015719;28;20272;-82
2021/10/22 02:58:54;;;;;;;7.10;4.77;;;;;;;5.68;87.03;100100.91;5015223;28;20720;-82
2021/10/22 03:01:21;;;;;;;9.43;4.20;;;;;;;5.69;87.00;100106.94;5015319;28;20211;-82
2021/10/22 03:03:49;;;;;;;8.20;4.30;;;;;;;5.63;87.80;100104.38;5015287;28;20207;-82
2021/10/22 03:06:16;;;;;;;10.17;4.43;;;;;;;5.63;87.40;100105.25;5015436;28;20280;-80
2021/10/22 03:08:42;;;;;;;6.80;3.97;;;;;;;5.62;87.26;100097.50;5015313;28;20217;-82
2021/10/22 03:11:08;;;;;;;11.70;4.80;;;;;;;5.65;87.49;100100.94;5015395;28;20207;-83
2021/10/22 03:13:35;;;;;;;12.97;5.07;;;;;;;5.68;87.82;100098.31;5015149;28;20622;-81
2021/10/22 03:16:01;;;;;;;9.13;5.07;;;;;;;5.68;87.52;100105.22;5015201;28;20210;-81
2021/10/22 03:18:28;;;;;;;8.70;5.27;;;;;;;5.70;86.98;100094.00;5013514;28;20206;-81
2021/10/22 03:20:56;;;;;;;9.80;4.87;;;;;;;5.71;87.03;100103.50;5014821;28;20779;-81
2021/10/22 03:23:23;;;;;;;5.27;3.80;;;;;;;5.63;86.91;100102.69;5015526;28;20293;-81
2021/10/22 03:25:50;;;;;;;7.03;3.60;;;;;;;5.68;86.66;100111.25;5012583;28;20230;-83
2021/10/22 03:28:16;;;;;;;8.63;3.50;;;;;;;5.71;86.32;100110.41;4996001;28;20203;-81
2021/10/22 03:30:43;;;;;;;13.57;5.47;;;;;;;5.70;86.96;100119.03;4999149;28;20222;-81
2021/10/22 03:33:09;;;;;;;8.13;4.77;;;;;;;5.76;86.42;100119.84;5014979;28;20210;-81
2021/10/22 03:35:36;;;;;;;12.80;4.40;;;;;;;5.76;86.64;100126.78;5005052;28;20195;-81
2021/10/22 03:38:04;;;;;;;5.63;3.53;;;;;;;5.73;86.53;100124.22;5008465;28;20209;-82
2021/10/22 03:40:31;;;;;;;6.17;3.57;;;;;;;5.74;85.57;100138.88;5003001;28;20223;-81
2021/10/22 03:42:58;;;;;;;6.27;2.97;;;;;;;5.76;85.76;100135.41;4997956;28;20211;-81
2021/10/22 03:45:26;;;;;;;8.40;3.53;;;;;;;5.80;85.43;100132.81;4995266;28;20202;-81
2021/10/22 03:47:53;;;;;;;8.97;3.27;;;;;;;5.84;85.42;100135.38;5013017;28;20206;-81
2021/10/22 03:50:22;;;;;;;10.57;3.07;;;;;;;5.87;85.61;100130.19;5015136;28;20229;-82
2021/10/22 03:52:49;;;;;;;6.10;2.97;;;;;;;5.88;85.51;100144.00;5014743;28;20695;-81
2021/10/22 03:55:17;;;;;;;8.37;3.83;;;;;;;5.77;85.18;100144.91;5014370;28;20268;-81
2021/10/22 03:57:43;;;;;;;10.23;3.47;;;;;;;5.80;85.68;100133.66;5010215;28;20202;-82
2021/10/22 04:00:11;;;;;;;14.23;4.70;;;;;;;5.77;86.04;100126.78;5014202;28;20223;-81
2021/10/22 04:02:37;;;;;;;6.43;3.80;;;;;;;5.83;86.14;100119.81;5008824;28;20210;-81
2021/10/22 04:05:05;;;;;;;7.27;3.60;;;;;;;5.80;85.73;100127.63;5012198;28;20253;-81
2021/10/22 04:07:32;;;;;;;5.87;3.70;;;;;;;5.81;85.61;100131.94;5006686;28;20691;-82
2021/10/22 04:09:59;;;;;;;8.37;4.03;;;;;;;5.82;85.22;100137.09;4994315;28;20227;-82
2021/10/22 04:12:26;;;;;;;9.43;4.10;;;;;;;5.86;84.93;100137.97;4994682;28;20274;-82
2021/10/22 04:14:53;;;;;;;8.83;4.23;;;;;;;5.74;85.12;100144.91;4994501;28;20747;-81
2021/10/22 04:17:19;;;;;;;8.00;3.63;;;;;;;5.80;85.29;100135.41;4994711;28;20703;-83
2021/10/22 04:19:46;;;;;;;7.90;3.67;;;;;;;5.85;85.33;100142.28;5006245;28;20227;-82
2021/10/22 04:22:13;;;;;;;6.53;3.43;;;;;;;5.85;84.66;100168.19;5014590;28;20202;-82
2021/10/22 04:24:39;;;;;;;10.77;3.70;;;;;;;5.89;84.91;100156.94;5014474;28;20197;-81
2021/10/22 04:27:06;;;;;;;7.53;3.70;;;;;;;5.84;84.83;100163.00;5013219;28;20276;-81
2021/10/22 04:29:33;;;;;;;6.87;3.97;;;;;;;5.84;85.12;100166.44;5013363;28;20226;-81
2021/10/22 04:32:00;;;;;;;11.77;3.83;;;;;;;5.87;84.74;100156.09;5014028;28;20211;-81
2021/10/22 04:34:28;;;;;;;9.33;4.57;;;;;;;5.92;85.24;100150.88;5009643;28;20262;-82
2021/10/22 04:37:00;;;;;;;5.30;3.50;;;;;;;5.90;84.72;100156.06;5026284;22;20203;-81
2021/10/22 04:42:11;;;;;;;7.97;3.43;;;;;;;5.92;84.19;100166.41;5029527;28;20216;-81
2021/10/22 04:44:39;;;;;;;6.20;4.50;;;;;;;5.85;85.02;100159.56;5040845;28;20235;-80
2021/10/22 04:47:06;;;;;;;7.17;3.27;;;;;;;5.88;84.94;100149.16;5043106;28;20231;-80
2021/10/22 04:49:32;;;;;;;7.47;2.83;;;;;;;5.86;84.70;100149.16;5035841;28;20561;-80
2021/10/22 04:51:59;;;;;;;5.07;3.17;;;;;;;5.84;85.00;100145.72;5023642;28;20214;-80
2021/10/22 04:54:25;;;;;;;9.10;3.23;;;;;;;5.87;85.03;100160.41;5022512;28;20651;-80
2021/10/22 04:56:52;;;;;;;7.20;3.00;;;;;;;5.95;84.44;100162.13;5023783;28;20202;-81
2021/10/22 04:59:20;;;;;;;7.97;2.60;;;;;;;5.99;83.90;100177.66;5025128;28;20245;-80
2021/10/22 05:01:47;;;;;;;7.00;2.60;;;;;;;6.00;84.37;100188.00;5024271;28;20679;-80
2021/10/22 05:04:14;;;;;;;7.43;2.73;;;;;;;5.98;83.85;100197.50;5022038;28;20241;-81
2021/10/22 05:06:40;;;;;;;7.87;3.30;;;;;;;5.99;83.61;100194.06;5023327;28;20227;-80
2021/10/22 05:09:07;;;;;;;5.10;3.00;;;;;;;6.02;84.15;100195.78;5018006;28;20231;-80
2021/10/22 05:11:34;;;;;;;3.97;2.00;;;;;;;6.04;83.81;100207.84;5023043;28;20203;-81
2021/10/22 05:14:00;;;;;;;5.93;2.50;;;;;;;6.00;83.95;100211.31;5021943;28;20214;-81
2021/10/22 05:16:27;;;;;;;7.33;2.60;;;;;;;6.02;83.02;100214.75;5020939;28;20230;-81
2021/10/22 05:18:55;;;;;;;8.07;2.40;;;;;;;6.03;82.84;100224.28;5022050;28;20230;-81
2021/10/22 05:21:21;;;;;;;13.87;2.87;;;;;;;6.06;82.70;100218.22;5022803;28;20670;-80
2021/10/22 05:23:48;;;;;;;8.60;2.00;;;;;;;6.08;82.85;100221.66;5010639;28;20728;-80
2021/10/22 05:26:14;;;;;;;2.87;1.90;;;;;;;6.07;82.81;100232.91;5003221;28;20232;-81
2021/10/22 05:28:40;;;;;;;4.90;2.13;;;;;;;6.03;83.23;100231.19;5001537;28;20760;-80
2021/10/22 05:31:07;;;;;;;7.43;1.70;;;;;;;6.03;82.05;100244.16;5001190;28;20690;-81
2021/10/22 05:33:34;;;;;;;5.60;1.67;;;;;;;6.09;82.20;100229.44;5001998;28;20270;-82
2021/10/22 05:36:02;;;;;;;6.53;1.70;;;;;;;6.10;82.26;100240.66;5000358;28;20243;-79
2021/10/22 05:38:28;;;;;;;4.57;1.70;;;;;;;6.15;81.84;100238.91;5011535;28;20253;-81
2021/10/22 05:40:55;;;;;;;8.17;1.70;;;;;;;6.16;82.27;100236.31;5020757;28;20226;-80
2021/10/22 05:43:21;;;;;;;7.03;1.73;;;;;;;6.09;81.57;100246.72;5024406;28;20268;-80
2021/10/22 05:45:48;;;;;;;7.40;1.80;;;;;;;6.17;81.91;100224.22;5025046;28;20210;-80
2021/10/22 05:48:14;;;;;;;9.33;2.07;;;;;;;6.13;82.14;100236.31;5024060;28;20226;-81
2021/10/22 05:50:41;;;;;;;5.87;1.90;;;;;;;6.14;81.77;100238.06;5021318;28;20659;-81
2021/10/22 05:53:09;;;;;;;7.87;1.83;;;;;;;6.19;81.50;100229.41;5006056;28;20207;-81
2021/10/22 05:55:35;;;;;;;6.63;1.83;;;;;;;6.20;81.88;100239.75;5003367;28;20244;-81
2021/10/22 05:58:02;;;;;;;5.87;1.60;;;;;;;6.20;81.52;100251.84;5004978;28;20219;-80
2021/10/22 06:00:29;;;;;;;6.40;1.60;;;;;;;6.15;81.29;100239.78;5003039;28;20231;-80
2021/10/22 06:02:56;;;;;;;3.27;1.30;;;;;;;6.14;80.86;100232.00;5003170;28;20238;-81
2021/10/22 06:05:22;;;;;;;4.90;1.47;;;;;;;6.22;80.98;100244.91;5011731;28;20206;-82
2021/10/22 06:07:48;;;;;;;3.90;1.60;;;;;;;6.18;80.12;100253.56;5022397;28;20241;-81
2021/10/22 06:10:16;;;;;;;5.57;1.70;;;;;;;6.23;80.36;100238.88;5022251;28;20357;-81
2021/10/22 06:12:43;;;;;;;5.43;2.10;;;;;;;6.25;80.42;100256.16;5021622;28;20624;-81
2021/10/22 06:15:10;;;;;;;4.00;1.43;;;;;;;6.29;79.96;100255.25;5021351;28;20213;-81
2021/10/22 06:17:36;;;;;;;3.23;1.30;;;;;;;6.29;80.40;100257.00;5021001;28;20416;-81
2021/10/22 06:20:10;;;;;;;7.00;1.60;;;;;;;6.32;80.24;100226.75;5020099;28;20226;-81
2021/10/22 06:22:52;;;;;;;5.17;1.80;;;;;;;6.35;79.74;100233.63;5020475;28;20298;-82
2021/10/22 06:25:20;;;;;;;8.17;1.97;;;;;;;6.37;79.49;100252.63;5020727;28;20727;-82
2021/10/22 06:27:47;;;;;;;4.80;1.57;;;;;;;6.42;79.43;100248.31;5021253;28;20241;-80
2021/10/22 06:30:14;;;;;;;6.17;1.90;;;;;;;6.48;79.17;100260.34;5026386;28;20324;-80
2021/10/22 06:32:40;;;;;;;3.57;1.10;;;;;;;6.50;79.05;100277.66;5024195;28;20721;-80
2021/10/22 06:35:08;;;;;;;3.47;1.47;;;;;;;6.52;79.08;100270.72;5011656;28;20673;-84
2021/10/22 06:37:34;;;;;;;12.67;2.17;;;;;;;6.59;78.44;100283.66;5000486;28;20264;-81
2021/10/22 06:40:01;;;;;;;4.23;1.17;;;;;;;6.65;79.07;100261.13;5016444;28;20227;-80
2021/10/22 06:42:29;;;;;;;6.60;1.40;;;;;;;6.62;78.06;100289.69;5020206;28;20225;-81
2021/10/22 06:44:55;;;;;;;8.10;2.03;;;;;;;6.70;78.28;100282.72;5019531;28;20711;-81
2021/10/22 06:47:21;;;;;;;9.23;2.10;;;;;;;6.72;79.11;100275.78;5019437;28;20696;-80
2021/10/22 06:49:48;;;;;;;4.27;1.57;;;;;;;6.72;78.61;100293.09;5019179;28;20219;-80
2021/10/22 06:52:14;;;;;;;6.37;1.53;;;;;;;6.72;78.12;100301.72;5014917;28;20206;-77
2021/10/22 06:54:41;;;;;;;5.33;1.43;;;;;;;6.75;78.46;100306.03;5013294;28;20233;-77
2021/10/22 06:57:07;;;;;;;6.43;1.53;;;;;;;6.82;77.82;100309.44;5013835;28;20206;-77
2021/10/22 06:59:35;;;;;;;4.10;1.40;;;;;;;6.87;77.04;100315.47;5013334;28;20293;-77
2021/10/22 07:02:01;;;;;;;5.63;1.70;;;;;;;6.84;77.14;100321.56;4998801;28;20274;-76
2021/10/22 07:04:28;;;;;;;5.23;1.53;;;;;;;6.84;77.34;100341.44;4993978;28;20262;-76
2021/10/22 07:09:38;;;;;;;4.47;1.40;;;;;;;6.92;76.74;100357.84;5012704;28;20912;-77
2021/10/22 07:12:05;;;;;;;6.47;1.50;;;;;;;6.98;77.27;100352.63;5013240;28;20206;-76
2021/10/22 07:14:34;;;;;;;8.97;1.43;;;;;;;7.02;77.04;100380.28;5012945;28;20202;-77
2021/10/22 07:17:02;;;;;;;4.90;1.40;;;;;;;7.06;76.97;100353.44;5008864;28;20282;-76
2021/10/22 07:19:29;;;;;;;7.57;1.73;;;;;;;7.15;77.67;100348.19;4993148;28;20707;-77
2021/10/22 07:22:00;;;;;;;6.77;1.87;;;;;;;7.18;76.86;100356.84;5002128;28;20218;-77
2021/10/22 07:24:26;;;;;;;6.57;1.30;;;;;;;7.18;76.98;100357.69;5012857;28;20214;-77
2021/10/22 07:26:53;;;;;;;8.47;1.97;;;;;;;7.18;76.87;100390.56;4999050;28;20251;-76
2021/10/22 07:29:20;;;;;;;6.53;2.07;;;;;;;7.20;76.70;100360.28;5008949;28;20222;-75
2021/10/22 07:31:46;;;;;;;3.97;1.73;;;;;;;7.24;76.53;100378.41;5019261;28;20241;-75
2021/10/22 07:34:16;;;;;;;4.87;1.67;;;;;;;7.26;77.02;100383.59;5022103;28;20213;-76
2021/10/22 07:36:45;;;;;;;9.10;1.47;;;;;;;7.33;76.12;100393.06;5023367;28;20195;-76
2021/10/22 07:39:12;;;;;;;4.80;1.87;;;;;;;7.37;77.10;100379.19;5012452;28;20576;-77
2021/10/22 07:41:38;;;;;;;3.60;1.87;;;;;;;7.41;76.30;100409.44;5012935;28;20575;-77
2021/10/22 07:44:05;;;;;;;7.17;2.90;;;;;;;7.41;75.97;100424.16;5021037;28;20762;-76
2021/10/22 07:46:31;;;;;;;5.73;2.67;;;;;;;7.48;75.88;100416.34;5022487;28;20213;-76
2021/10/22 07:48:58;;;;;;;5.70;1.60;;;;;;;7.47;76.05;100404.25;5022341;28;20273;-75
2021/10/22 07:51:26;;;;;;;3.60;1.47;;;;;;;7.48;75.41;100418.06;5021235;28;20290;-75
2021/10/22 07:53:52;;;;;;;7.40;1.70;;;;;;;7.47;76.14;100401.63;5022029;28;20201;-76
2021/10/22 07:56:18;;;;;;;3.33;1.60;;;;;;;7.50;76.54;100396.41;5022908;28;20199;-76
2021/10/22 07:58:49;;;;;;;7.40;1.70;;;;;;;7.56;75.75;100392.91;5020627;28;20261;-75
2021/10/22 08:01:15;;;;;;;7.97;1.97;;;;;;;7.58;75.77;100408.50;5021582;28;20734;-76
2021/10/22 08:03:42;;;;;;;5.30;1.53;;;;;;;7.60;75.98;100393.75;5022306;28;20563;-76
2021/10/22 08:06:12;;;;;;;3.63;1.73;;;;;;;7.59;77.07;100381.63;5021243;28;20234;-77
2021/10/22 08:08:40;;;;;;;5.30;1.57;;;;;;;7.64;76.12;100375.53;5022513;28;20233;-81
2021/10/22 08:11:06;;;;;;;6.57;2.13;;;;;;;7.63;76.13;100383.31;5023298;28;20199;-79
2021/10/22 08:13:33;;;;;;;7.27;1.87;;;;;;;7.62;76.89;100368.63;5022115;28;20213;-78
2021/10/22 08:16:00;;;;;;;3.77;1.50;;;;;;;7.55;76.03;100360.88;5017760;28;20215;-79
2021/10/22 08:18:27;;;;;;;6.30;1.83;;;;;;;7.60;76.97;100357.38;5014474;28;20213;-78
2021/10/22 08:20:56;;;;;;;4.83;1.50;;;;;;;7.55;76.43;100347.00;5019983;28;20287;-83
2021/10/22 08:23:23;;;;;;;5.83;1.93;;;;;;;7.58;77.13;100349.59;5029676;28;20720;-79
2021/10/22 08:25:51;;;;;;;6.23;1.77;;;;;;;7.62;76.63;100361.69;5032673;28;20240;-77
2021/10/22 08:28:20;;;;;;;6.50;2.60;;;;;;;7.67;76.34;100378.09;5033818;28;20300;-81
2021/10/22 08:30:55;;;;;;;5.47;2.20;;;;;;;7.70;77.75;100339.09;5037559;28;20226;-80
2021/10/22 08:33:21;;;;;;;7.17;1.87;;;;;;;7.70;76.27;100346.03;5036818;28;20208;-81
2021/10/22 08:35:48;;;;;;;6.00;2.20;;;;;;;7.80;76.40;100359.81;5035929;28;20216;-78
2021/10/22 08:38:14;;;;;;;8.87;2.43;;;;;;;7.85;76.65;100358.00;5026386;28;20213;-77
2021/10/22 08:40:41;;;;;;;6.27;2.07;;;;;;;7.79;76.31;100379.75;5014058;28;20222;-80
2021/10/22 08:43:09;;;;;;;4.97;1.97;;;;;;;7.81;76.14;100369.31;5018602;28;20727;-80
2021/10/22 08:45:35;;;;;;;5.37;2.00;;;;;;;7.83;75.77;100402.22;5013117;28;20203;-76
2021/10/22 08:48:03;;;;;;;5.87;3.10;;;;;;;7.86;76.64;100380.53;5017500;28;20234;-79
2021/10/22 08:50:29;;;;;;;6.23;2.47;;;;;;;7.88;76.28;100356.25;5014908;28;20273;-77
2021/10/22 08:52:56;;;;;;;6.60;1.90;;;;;;;7.92;75.77;100365.75;5012043;28;20209;-75
2021/10/22 08:55:23;;;;;;;4.87;1.93;;;;;;;7.94;76.30;100374.38;5011210;28;20236;-76
2021/10/22 08:57:50;;;;;;;6.47;2.07;;;;;;;8.00;76.24;100350.09;5011504;28;20581;-76
2021/10/22 09:00:22;;;;;;;4.53;1.73;;;;;;;8.04;77.20;100314.53;5013085;28;20288;-79
2021/10/22 09:02:49;;;;;;;6.73;1.77;;;;;;;8.07;75.70;100367.34;5014536;28;20199;-79
2021/10/22 09:05:17;;;;;;;3.13;1.60;;;;;;;8.19;76.51;100337.78;5013385;28;20206;-76
2021/10/22 09:07:46;;;;;;;4.23;2.13;;;;;;;8.16;75.71;100358.59;5012056;28;20722;-75
2021/10/22 09:10:17;;;;;;;4.40;1.67;;;;;;;8.14;76.20;100349.94;5012867;28;20231;-77
2021/10/22 09:12:46;;;;;;;4.60;2.03;;;;;;;8.19;76.64;100342.13;5012557;28;20199;-75
2021/10/22 09:15:14;;;;;;;5.73;2.30;;;;;;;8.16;76.28;100353.38;5013269;28;20207;-76
2021/10/22 09:17:43;;;;;;;5.27;1.73;;;;;;;8.15;75.35;100362.94;5015030;28;20205;-76
2021/10/22 09:20:13;;;;;;;4.10;1.63;;;;;;;8.24;75.47;100361.97;5015178;28;20258;-78
2021/10/22 09:22:41;;;;;;;6.17;1.90;;;;;;;8.30;75.50;100376.66;5018121;28;20253;-78
2021/10/22 09:25:10;;;;;;;3.23;1.83;;;;;;;8.40;75.83;100351.41;5017543;28;20202;-78
2021/10/22 09:27:40;;;;;;;3.17;1.57;;;;;;;8.37;75.26;100356.66;5016578;28;20256;-78
2021/10/22 09:30:10;;;;;;;2.47;1.63;;;;;;;8.40;75.20;100377.41;5017363;28;20237;-78
2021/10/22 09:32:46;;;;;;;6.17;2.00;;;;;;;8.46;75.79;100383.47;5016504;28;20210;-77
2021/10/22 09:35:14;;;;;;;3.33;1.80;;;;;;;8.68;74.84;100380.56;5018030;28;20286;-79
2021/10/22 09:37:41;;;;;;;5.13;1.90;;;;;;;8.78;74.47;100386.53;5022181;28;20250;-78
2021/10/22 09:40:08;;;;;;;6.37;1.90;;;;;;;8.83;75.01;100411.63;5024611;28;20238;-78
2021/10/22 09:42:37;;;;;;;3.30;1.97;;;;;;;8.86;72.83;100439.34;5027033;28;20241;-78
2021/10/22 09:45:05;;;;;;;4.10;1.43;;;;;;;8.87;73.12;100454.97;5025788;28;20226;-77
2021/10/22 09:47:32;;;;;;;6.03;2.10;;;;;;;8.90;73.93;100459.25;5026510;28;20221;-77
2021/10/22 09:50:09;;;;;;;5.73;2.53;;;;;;;9.00;73.92;100454.81;5027217;28;20806;-78
2021/10/22 09:52:36;;;;;;;3.50;1.63;;;;;;;9.02;73.41;100453.94;5025195;28;20721;-77
2021/10/22 09:55:09;;;;;;;5.90;1.50;;;;;;;9.16;73.71;100453.75;5025370;28;20215;-77
2021/10/22 09:57:36;;;;;;;4.57;1.70;;;;;;;9.17;72.86;100485.84;5026119;28;20341;-78
2021/10/22 10:00:08;;;;;;;5.30;1.50;;;;;;;9.13;72.62;100487.63;5026830;28;20229;-78
2021/10/22 10:02:35;;;;;;;2.80;1.67;;;;;;;8.97;71.36;100541.63;5026186;28;20604;-77
2021/10/22 10:05:06;;;;;;;5.33;2.37;;;;;;;9.06;73.22;100480.78;5024704;28;20623;-77
2021/10/22 10:07:36;;;;;;;7.73;2.00;;;;;;;9.06;72.29;100507.69;5024419;28;20211;-79
2021/10/22 10:10:03;;;;;;;3.67;1.50;;;;;;;9.07;70.91;100531.97;5023005;28;20238;-78
2021/10/22 10:12:31;;;;;;;5.90;2.30;;;;;;;9.14;72.04;100521.47;5020920;28;20203;-79
2021/10/22 10:14:57;;;;;;;9.83;2.30;;;;;;;9.14;71.95;100518.03;5023546;28;20241;-78
2021/10/22 10:17:24;;;;;;;9.77;2.03;;;;;;;9.17;71.58;100551.81;5027577;28;20206;-79
2021/10/22 10:19:52;;;;;;;4.00;1.90;;;;;;;9.15;71.38;100531.00;5025748;28;20225;-77
2021/10/22 10:22:23;;;;;;;3.80;2.00;;;;;;;9.28;72.64;100508.28;5025343;28;20194;-78
2021/10/22 10:24:58;;;;;;;7.07;2.20;;;;;;;9.28;70.70;100549.09;5022129;28;20202;-78
2021/10/22 10:27:26;;;;;;;4.10;2.10;;;;;;;9.25;72.19;100520.47;5023398;28;20197;-78
2021/10/22 10:29:56;;;;;;;6.07;2.63;;;;;;;9.29;72.26;100503.94;5024032;28;20229;-77
2021/10/22 10:32:25;;;;;;;3.10;2.27;;;;;;;9.29;72.77;100467.47;5023873;28;20203;-77
2021/10/22 10:34:53;;;;;;;4.53;2.10;;;;;;;9.29;71.31;100485.69;5024904;28;20682;-77
2021/10/22 10:37:31;;;;;;;3.00;1.80;;;;;;;9.27;71.66;100542.16;5042217;28;20218;-77
2021/10/22 10:40:02;;;;;;;4.87;2.33;;;;;;;9.30;71.83;100490.03;5032895;28;20302;-76
2021/10/22 10:42:33;;;;;;;4.87;3.00;;;;;;;9.40;72.20;100485.56;5036228;28;20186;-77
2021/10/22 10:45:01;;;;;;;4.97;2.27;;;;;;;9.25;71.03;100541.31;5019984;28;20210;-77
2021/10/22 10:47:49;;;;;;;4.00;2.13;;;;;;;9.35;71.49;100524.69;5018821;28;20211;-77
2021/10/22 10:50:19;;;;;;;6.50;2.30;;;;;;;9.41;71.13;100548.06;5018033;28;20226;-78
2021/10/22 10:52:56;;;;;;;7.07;2.43;;;;;;;9.55;71.10;100532.25;5022154;28;20209;-79
2021/10/22 10:55:28;;;;;;;5.57;2.93;;;;;;;9.62;70.30;100557.34;5026321;28;20198;-80
2021/10/22 10:57:58;;;;;;;6.73;2.43;;;;;;;9.76;70.07;100564.13;5022063;28;20210;-80
2021/10/22 11:00:29;;;;;;;5.27;2.07;;;;;;;9.77;70.44;100582.34;5026462;28;20215;-79
2021/10/22 11:03:12;;;;;;;4.73;2.07;;;;;;;9.68;70.54;100559.88;5023876;28;20684;-79
2021/10/22 11:06:05;;;;;;;3.83;1.87;;;;;;;9.70;70.37;100545.09;5038496;22;20747;-75
2021/10/22 11:08:50;;;;;;;8.73;2.53;;;;;;;9.68;70.33;100552.06;5016708;28;20226;-74
2021/10/22 11:11:32;;;;;;;8.13;2.17;;;;;;;9.64;69.51;100583.41;5020252;28;20201;-76
2021/10/22 11:14:16;;;;;;;7.10;2.87;;;;;;;9.77;69.99;100545.84;5020997;28;20198;-82
2021/10/22 11:16:51;;;;;;;4.20;2.00;;;;;;;9.72;68.87;100616.28;5022283;28;20580;-76
2021/10/22 11:19:21;;;;;;;3.43;1.70;;;;;;;9.79;69.19;100578.00;5020929;28;20272;-74
2021/10/22 11:21:49;;;;;;;3.33;1.70;;;;;;;9.71;69.72;100572.88;5022789;28;20256;-77
2021/10/22 11:24:42;;;;;;;4.47;1.80;;;;;;;9.64;70.12;100578.19;5026720;28;20241;-77
2021/10/22 11:27:17;;;;;;;5.67;2.33;;;;;;;9.50;70.76;100552.31;5025364;28;20226;-77
2021/10/22 11:29:45;;;;;;;4.97;2.03;;;;;;;9.37;70.46;100546.38;5023284;28;20225;-77
2021/10/22 11:32:14;;;;;;;3.50;1.90;;;;;;;9.39;70.89;100534.19;5021109;28;20565;-77
2021/10/22 11:34:42;;;;;;;4.33;2.73;;;;;;;9.38;71.44;100529.03;5024241;28;20319;-78
2021/10/22 11:37:11;;;;;;;4.17;2.03;;;;;;;9.40;72.45;100494.25;5022896;28;20612;-74
2021/10/22 11:39:42;;;;;;;5.53;2.70;;;;;;;9.34;73.58;100466.53;5019377;28;20209;-77
2021/10/22 11:42:35;;;;;;;6.00;2.43;;;;;;;9.24;74.76;100415.44;5026023;28;20204;-78